Time;durP1;ratioP1;P1;durP2;ratioP2;P2;SDS_P1;SDS_P2;PMS_P1;PMS_P2;Temp;Humidity;BMP_temperature;BMP_pressure;BME280_temperature;BME280_humidity;BME280_pressure;Samples;Min_cycle;Max_cycle;Signal;HPM_P1;HPM_P2
2023/12/29 00:02:22;;;;;;;9.30;4.30;;;;;;;15.86;36.36;100433.59;102572;1290;600508;-53
2023/12/29 00:04:50;;;;;;;14.10;10.30;;;;;;;17.38;33.72;100431.63;104491;1264;59495;-55
2023/12/29 00:07:18;;;;;;;9.20;3.70;;;;;;;17.58;33.39;100433.20;105420;1269;59365;-53
2023/12/29 00:09:48;;;;;;;16.70;11.50;;;;;;;17.61;33.29;100432.51;104487;1272;74479;-54
2023/12/29 00:12:16;;;;;;;9.80;4.80;;;;;;;17.64;33.37;100427.55;104683;1269;60125;-51
2023/12/29 00:14:44;;;;;;;18.10;10.10;;;;;;;17.74;33.35;100427.20;104239;1270;364568;-53
2023/12/29 00:17:12;;;;;;;10.80;3.10;;;;;;;17.79;33.30;100429.98;104844;1267;59416;-55
2023/12/29 00:19:39;;;;;;;7.50;2.80;;;;;;;17.87;33.26;100428.34;105064;1264;59240;-53
2023/12/29 00:22:07;;;;;;;16.50;11.50;;;;;;;17.95;33.18;100428.61;104838;1261;62017;-53
2023/12/29 00:24:35;;;;;;;15.40;10.40;;;;;;;18.00;33.18;100425.05;105125;1264;61369;-54
2023/12/29 00:27:04;;;;;;;9.60;6.20;;;;;;;18.03;33.16;100424.77;105250;1269;64286;-52
2023/12/29 00:29:34;;;;;;;16.80;10.90;;;;;;;18.06;33.13;100423.16;105264;1269;59766;-51
2023/12/29 00:32:02;;;;;;;11.60;5.70;;;;;;;18.08;33.17;100427.26;104777;1262;59596;-53
2023/12/29 00:34:31;;;;;;;16.60;11.80;;;;;;;18.09;33.15;100430.52;105283;1264;62854;-52
2023/12/29 00:37:00;;;;;;;11.70;5.60;;;;;;;18.07;33.12;100429.16;105274;1267;61334;-56
2023/12/29 00:39:30;;;;;;;15.80;11.30;;;;;;;18.05;33.18;100428.60;105248;1266;63782;-55
2023/12/29 00:41:59;;;;;;;8.80;4.40;;;;;;;18.05;33.25;100422.65;105180;1262;59734;-55
2023/12/29 00:44:26;;;;;;;13.70;9.50;;;;;;;18.10;33.27;100420.30;104813;1264;59716;-56
2023/12/29 00:46:54;;;;;;;8.90;3.20;;;;;;;18.15;33.23;100422.05;105490;1264;66433;-55
2023/12/29 00:49:21;;;;;;;12.50;5.70;;;;;;;18.21;33.26;100416.06;105437;1264;61393;-55
2023/12/29 00:51:49;;;;;;;15.90;11.10;;;;;;;18.31;33.14;100406.73;105514;1267;66003;-55
2023/12/29 00:54:19;;;;;;;19.50;13.30;;;;;;;18.41;33.18;100403.80;104873;1267;59765;-57
2023/12/29 00:56:50;;;;;;;10.50;4.70;;;;;;;18.52;33.02;100400.13;105578;1264;59762;-54
2023/12/29 00:59:18;;;;;;;13.90;10.00;;;;;;;18.59;32.93;100393.66;105112;1264;64115;-54
2023/12/29 01:01:46;;;;;;;13.70;4.80;;;;;;;18.66;32.77;100390.52;105833;1261;61396;-55
2023/12/29 01:04:14;;;;;;;14.80;9.30;;;;;;;18.61;32.75;100387.34;105091;1266;63787;-50
2023/12/29 01:06:42;;;;;;;10.60;5.20;;;;;;;18.56;32.82;100386.40;104847;1264;59742;-53
2023/12/29 01:09:11;;;;;;;15.80;10.90;;;;;;;18.51;32.85;100388.44;105030;1259;59531;-53
2023/12/29 01:11:39;;;;;;;11.90;4.90;;;;;;;18.46;32.89;100389.27;104992;1272;64657;-53
2023/12/29 01:14:07;;;;;;;17.30;11.20;;;;;;;18.39;32.95;100388.79;105260;1267;61398;-53
2023/12/29 01:16:35;;;;;;;7.70;4.00;;;;;;;18.32;33.06;100392.88;104799;1264;62568;-54
2023/12/29 01:19:02;;;;;;;16.00;10.30;;;;;;;18.36;33.05;100393.20;104874;1262;59650;-53
2023/12/29 01:21:33;;;;;;;9.20;3.50;;;;;;;18.42;33.05;100386.68;104842;1263;59624;-53
2023/12/29 01:24:04;;;;;;;16.60;10.90;;;;;;;18.50;33.03;100385.61;105321;1260;64661;-53
2023/12/29 01:26:36;;;;;;;10.10;4.60;;;;;;;18.55;33.04;100386.21;105323;1264;70855;-53
2023/12/29 01:29:06;;;;;;;21.20;12.60;;;;;;;18.59;32.97;100382.76;104866;1264;62516;-53
2023/12/29 01:31:34;;;;;;;17.80;11.40;;;;;;;18.62;33.06;100381.08;105406;1265;59765;-54
2023/12/29 01:34:02;;;;;;;10.00;4.20;;;;;;;18.66;32.87;100376.69;104856;1261;60151;-53
2023/12/29 01:36:29;;;;;;;16.30;10.80;;;;;;;18.67;32.95;100365.65;105404;1264;64043;-53
2023/12/29 01:38:57;;;;;;;12.70;5.90;;;;;;;18.68;32.89;100362.36;105507;1260;69492;-54
2023/12/29 01:41:25;;;;;;;22.90;13.00;;;;;;;18.62;33.02;100361.50;104878;1266;63743;-53
2023/12/29 01:43:56;;;;;;;20.50;12.60;;;;;;;18.51;33.13;100358.23;104903;1263;59704;-53
2023/12/29 01:46:33;;;;;;;10.40;3.60;;;;;;;18.53;33.16;100357.38;105484;1264;59567;-53
2023/12/29 01:49:01;;;;;;;15.80;10.10;;;;;;;18.59;33.15;100357.25;105365;1263;62833;-52
2023/12/29 01:51:29;;;;;;;8.80;3.60;;;;;;;18.57;33.30;100357.42;104869;1261;61408;-52
2023/12/29 01:53:57;;;;;;;10.50;3.60;;;;;;;18.50;33.36;100359.30;104904;1258;62450;-53
2023/12/29 01:56:25;;;;;;;14.30;8.80;;;;;;;18.51;33.55;100361.05;104873;1261;59666;-54
2023/12/29 01:58:52;;;;;;;12.50;5.80;;;;;;;18.50;33.62;100365.24;105612;1266;60372;-54
2023/12/29 02:01:20;;;;;;;15.30;10.60;;;;;;;18.49;33.63;100368.05;104871;1260;62873;-53
2023/12/29 02:03:48;;;;;;;19.10;11.90;;;;;;;18.49;33.78;100368.05;104921;1260;61373;-53
2023/12/29 02:06:16;;;;;;;7.80;4.10;;;;;;;18.54;33.83;100363.23;104778;1267;63663;-54
2023/12/29 02:08:44;;;;;;;24.50;13.30;;;;;;;18.56;33.87;100359.50;104989;1261;59708;-53
2023/12/29 02:11:11;;;;;;;12.70;4.90;;;;;;;18.57;33.88;100359.68;105006;1259;59776;-53
2023/12/29 02:13:40;;;;;;;21.00;12.50;;;;;;;18.62;33.78;100358.34;104856;1265;64147;-53
2023/12/29 02:16:27;;;;;;;10.90;6.20;;;;;;;18.64;33.84;100360.02;104862;1264;61529;-53
2023/12/29 02:18:55;;;;;;;19.00;10.80;;;;;;;18.72;33.71;100358.20;104919;1260;63800;-54
2023/12/29 02:21:25;;;;;;;10.70;4.60;;;;;;;18.79;33.65;100354.52;105404;1269;59742;-53
2023/12/29 02:23:52;;;;;;;16.70;11.00;;;;;;;18.89;33.71;100353.00;104961;1260;59809;-54
2023/12/29 02:26:22;;;;;;;17.40;10.90;;;;;;;19.01;33.59;100351.16;105004;1264;62820;-54
2023/12/29 02:28:55;;;;;;;16.10;11.00;;;;;;;19.07;33.70;100353.48;104980;1260;61334;-54
2023/12/29 02:31:24;;;;;;;11.80;4.50;;;;;;;19.12;33.63;100351.27;104832;1261;63775;-54
2023/12/29 02:33:52;;;;;;;16.60;10.70;;;;;;;19.21;33.36;100349.71;104923;1265;59666;-52
2023/12/29 02:36:19;;;;;;;8.50;3.90;;;;;;;19.24;33.09;100343.01;104765;1264;59577;-53
2023/12/29 02:38:47;;;;;;;15.60;11.00;;;;;;;19.26;33.02;100342.41;104889;1264;64599;-52
2023/12/29 02:41:15;;;;;;;15.50;10.90;;;;;;;19.21;33.00;100339.98;104892;1267;60084;-53
2023/12/29 02:43:42;;;;;;;13.40;5.70;;;;;;;19.19;33.08;100343.17;104854;1261;63761;-53
2023/12/29 02:46:10;;;;;;;22.60;12.00;;;;;;;19.14;33.02;100348.25;104902;1260;59775;-53
2023/12/29 02:48:37;;;;;;;19.00;10.00;;;;;;;19.07;33.07;100350.64;105185;1264;59706;-52
2023/12/29 02:51:07;;;;;;;9.50;3.80;;;;;;;19.10;33.02;100345.48;104918;1267;64291;-53
2023/12/29 02:53:35;;;;;;;17.10;9.60;;;;;;;19.18;32.89;100344.63;105228;1263;61362;-53
2023/12/29 02:56:03;;;;;;;13.80;10.10;;;;;;;19.20;32.82;100352.19;104846;1264;63731;-53
2023/12/29 02:58:31;;;;;;;9.00;4.00;;;;;;;19.19;32.98;100356.17;105224;1261;59730;-52
2023/12/29 03:00:58;;;;;;;16.60;10.40;;;;;;;19.16;33.12;100355.67;104861;1261;59762;-53
2023/12/29 03:03:27;;;;;;;17.10;11.10;;;;;;;19.11;33.27;100352.11;105585;1261;64088;-52
2023/12/29 03:05:55;;;;;;;11.50;4.40;;;;;;;19.05;33.27;100347.42;105391;1261;61367;-54
2023/12/29 03:08:23;;;;;;;16.60;10.10;;;;;;;19.00;33.34;100337.00;105622;1266;63836;-53
2023/12/29 03:10:51;;;;;;;13.30;5.40;;;;;;;18.97;33.40;100337.63;104845;1266;59685;-52
2023/12/29 03:13:18;;;;;;;17.60;11.20;;;;;;;18.90;33.42;100337.14;104868;1260;59801;-54
2023/12/29 03:15:46;;;;;;;9.90;3.90;;;;;;;18.82;33.53;100329.76;104915;1261;62913;-52
2023/12/29 03:18:14;;;;;;;16.20;10.00;;;;;;;18.82;33.49;100337.22;105544;1257;60113;-54
2023/12/29 03:20:42;;;;;;;15.30;9.90;;;;;;;18.86;33.49;100340.14;105341;1254;63735;-52
2023/12/29 03:23:09;;;;;;;10.50;4.60;;;;;;;18.93;33.60;100337.68;105773;1257;59741;-53
2023/12/29 03:25:37;;;;;;;16.70;10.70;;;;;;;19.01;33.45;100341.76;105616;1260;59637;-53
2023/12/29 03:28:05;;;;;;;12.20;5.10;;;;;;;19.02;33.47;100346.25;105494;1254;64106;-52
2023/12/29 03:30:32;;;;;;;17.10;10.80;;;;;;;18.98;33.25;100346.52;105821;1256;60100;-52
2023/12/29 03:33:00;;;;;;;11.70;4.50;;;;;;;18.88;33.27;100343.21;105383;1254;63741;-51
2023/12/29 03:35:30;;;;;;;14.00;10.40;;;;;;;18.79;33.42;100349.76;105382;1254;59756;-53
2023/12/29 03:37:58;;;;;;;15.30;10.70;;;;;;;18.70;33.46;100347.91;105495;1257;59657;-54
2023/12/29 03:40:26;;;;;;;9.20;4.00;;;;;;;18.64;33.53;100353.24;105484;1258;64188;-54
2023/12/29 03:42:53;;;;;;;17.10;10.30;;;;;;;18.66;33.47;100355.00;106149;1253;61414;-55
2023/12/29 03:45:21;;;;;;;9.20;3.80;;;;;;;18.68;33.40;100353.10;105339;1254;63669;-53
2023/12/29 03:47:49;;;;;;;14.60;10.10;;;;;;;18.68;33.37;100354.36;105402;1257;59761;-52
2023/12/29 03:50:17;;;;;;;11.00;4.30;;;;;;;18.67;33.40;100346.88;105358;1254;59750;-54
2023/12/29 03:52:44;;;;;;;16.50;10.40;;;;;;;18.66;33.50;100345.55;105296;1258;64153;-55
2023/12/29 03:55:12;;;;;;;11.40;3.80;;;;;;;18.63;33.39;100343.02;105362;1252;61490;-52
2023/12/29 03:57:40;;;;;;;15.00;10.30;;;;;;;18.59;33.41;100341.92;105602;1257;63669;-52
2023/12/29 04:00:11;;;;;;;10.70;4.70;;;;;;;18.53;33.41;100344.69;105585;1257;59583;-52
2023/12/29 04:02:39;;;;;;;16.90;11.10;;;;;;;18.47;33.44;100344.59;105623;1254;59663;-49
2023/12/29 04:05:08;;;;;;;22.40;5.40;;;;;;;18.44;33.47;100348.64;105473;1254;64121;-54
2023/12/29 04:07:38;;;;;;;19.10;5.00;;;;;;;18.46;33.36;100352.70;105827;1257;60551;-54
2023/12/29 04:10:08;;;;;;;17.00;10.90;;;;;;;18.49;33.37;100353.38;105344;1257;63766;-54
2023/12/29 04:12:36;;;;;;;17.00;10.60;;;;;;;18.48;33.42;100357.01;105835;1252;60520;-54
2023/12/29 04:15:04;;;;;;;9.80;4.40;;;;;;;18.46;33.42;100349.27;105895;1258;60462;-53
2023/12/29 04:17:31;;;;;;;16.70;10.30;;;;;;;18.50;33.42;100352.14;105926;1257;64919;-54
2023/12/29 04:19:59;;;;;;;15.30;10.40;;;;;;;18.52;33.39;100350.32;106021;1257;60435;-53
2023/12/29 04:22:27;;;;;;;9.50;4.20;;;;;;;18.52;33.41;100348.07;105945;1254;63668;-52
2023/12/29 04:24:55;;;;;;;16.70;11.00;;;;;;;18.50;33.32;100345.38;106260;1253;61390;-51
2023/12/29 04:27:22;;;;;;;12.90;4.70;;;;;;;18.47;33.28;100344.92;105562;1254;60464;-50
2023/12/29 04:29:50;;;;;;;15.50;10.50;;;;;;;18.46;33.33;100349.28;106139;1254;64879;-51
2023/12/29 04:32:18;;;;;;;11.10;5.50;;;;;;;18.43;33.36;100349.11;105478;1254;61316;-54
2023/12/29 04:34:45;;;;;;;7.20;3.50;;;;;;;18.47;33.37;100352.55;105540;1254;64295;-53
2023/12/29 04:37:13;;;;;;;8.90;3.60;;;;;;;18.54;33.19;100348.98;105353;1251;60555;-53
2023/12/29 04:39:41;;;;;;;14.50;9.30;;;;;;;18.60;33.23;100350.91;105352;1260;60441;-54
2023/12/29 04:42:08;;;;;;;8.60;3.70;;;;;;;18.60;33.19;100348.02;105382;1254;63689;-53
2023/12/29 04:44:36;;;;;;;17.80;11.00;;;;;;;18.55;33.20;100340.45;105459;1251;61339;-53
2023/12/29 04:47:03;;;;;;;11.50;3.90;;;;;;;18.47;33.23;100344.50;105556;1257;62431;-50
2023/12/29 04:49:31;;;;;;;16.00;10.90;;;;;;;18.36;33.20;100343.95;105528;1251;60575;-52
2023/12/29 04:51:59;;;;;;;15.80;11.10;;;;;;;18.24;33.33;100347.81;105568;1250;60325;-53
2023/12/29 04:54:26;;;;;;;11.00;4.70;;;;;;;18.13;33.42;100350.48;105603;1252;63901;-52
2023/12/29 04:56:54;;;;;;;9.50;4.60;;;;;;;18.03;33.55;100350.76;106147;1251;61425;-51
2023/12/29 04:59:22;;;;;;;16.00;10.80;;;;;;;17.93;33.63;100353.92;105557;1251;65787;-52
2023/12/29 05:01:49;;;;;;;8.40;4.00;;;;;;;17.82;33.90;100354.77;105524;1251;60438;-51
2023/12/29 05:04:17;;;;;;;15.40;10.50;;;;;;;17.79;33.80;100354.36;105706;1257;60454;-51
2023/12/29 05:06:45;;;;;;;9.40;4.90;;;;;;;17.80;33.78;100350.91;105605;1251;65439;-52
2023/12/29 05:09:12;;;;;;;13.60;10.40;;;;;;;17.81;33.84;100355.09;105646;1251;61446;-52
2023/12/29 05:11:40;;;;;;;9.60;4.30;;;;;;;17.82;33.80;100355.33;105556;1254;63886;-54
2023/12/29 05:14:07;;;;;;;17.20;10.80;;;;;;;17.82;33.83;100355.89;105501;1254;60543;-54
2023/12/29 05:16:35;;;;;;;9.50;3.40;;;;;;;17.78;33.86;100352.46;105535;1251;60633;-54
2023/12/29 05:19:03;;;;;;;15.50;11.50;;;;;;;17.69;33.92;100355.52;105861;1251;64967;-50
2023/12/29 05:21:31;;;;;;;10.00;4.50;;;;;;;17.63;33.92;100355.97;105493;1251;61305;-53
2023/12/29 05:23:59;;;;;;;10.20;4.80;;;;;;;17.59;33.92;100355.91;105530;1254;64110;-50
2023/12/29 05:26:27;;;;;;;21.20;11.30;;;;;;;17.52;33.96;100359.23;105520;1251;60438;-53
2023/12/29 05:28:54;;;;;;;10.50;4.40;;;;;;;17.40;33.98;100359.56;105518;1257;60640;-51
2023/12/29 05:31:22;;;;;;;10.50;4.20;;;;;;;17.36;34.04;100360.20;105476;1257;64883;-50
2023/12/29 05:33:50;;;;;;;17.00;10.60;;;;;;;17.36;33.99;100359.73;105563;1252;61354;-51
2023/12/29 05:36:18;;;;;;;9.60;4.00;;;;;;;17.38;34.05;100356.30;105786;1251;63810;-52
2023/12/29 05:38:46;;;;;;;11.30;4.60;;;;;;;17.39;34.03;100360.20;105674;1250;60450;-54
2023/12/29 05:41:14;;;;;;;9.30;4.30;;;;;;;17.36;33.96;100363.95;105691;1253;61622;-53
2023/12/29 05:43:42;;;;;;;17.20;12.00;;;;;;;17.33;33.93;100361.10;105663;1254;63826;-54
2023/12/29 05:46:12;;;;;;;10.20;4.80;;;;;;;17.25;34.04;100364.38;105663;1251;61316;-54
2023/12/29 05:48:40;;;;;;;11.70;5.20;;;;;;;17.22;34.03;100364.33;105626;1251;63675;-54
2023/12/29 05:51:12;;;;;;;16.50;11.80;;;;;;;17.17;34.12;100362.10;105902;1251;60528;-53
2023/12/29 05:53:40;;;;;;;9.90;4.40;;;;;;;17.11;34.11;100357.79;105985;1251;59266;-57
2023/12/29 05:56:08;;;;;;;8.80;3.60;;;;;;;17.14;34.09;100361.58;105911;1254;64967;-57
2023/12/29 05:58:36;;;;;;;15.60;10.30;;;;;;;17.20;33.94;100365.98;106004;1248;61570;-57
2023/12/29 06:01:05;;;;;;;8.10;3.80;;;;;;;17.24;33.92;100367.49;106803;1251;63899;-54
2023/12/29 06:03:33;;;;;;;9.10;4.60;;;;;;;17.27;33.94;100367.91;106031;1251;60452;-57
2023/12/29 06:06:01;;;;;;;18.20;12.40;;;;;;;17.25;33.91;100366.72;105647;1254;62868;-48
2023/12/29 06:08:28;;;;;;;10.10;5.40;;;;;;;17.21;33.87;100375.13;105667;1254;63649;-56
2023/12/29 06:10:56;;;;;;;9.00;4.90;;;;;;;17.15;33.88;100377.96;105678;1254;60557;-55
2023/12/29 06:13:24;;;;;;;19.40;14.10;;;;;;;17.05;33.98;100380.02;105674;1254;63689;-55
2023/12/29 06:15:51;;;;;;;12.40;5.30;;;;;;;16.95;34.04;100382.02;105538;1251;60608;-54
2023/12/29 06:18:19;;;;;;;35.80;15.10;;;;;;;16.94;34.18;100378.54;105602;1254;60389;-55
2023/12/29 06:20:47;;;;;;;45.50;22.30;;;;;;;17.00;34.06;100381.10;105614;1254;63746;-52
2023/12/29 06:23:16;;;;;;;33.30;25.10;;;;;;;17.09;34.06;100387.38;105661;1248;61972;-54
2023/12/29 06:25:44;;;;;;;17.80;10.80;;;;;;;17.14;34.03;100374.44;105679;1250;62560;-54
2023/12/29 06:28:12;;;;;;;25.70;19.40;;;;;;;17.17;33.94;100373.65;105618;1255;60632;-51
2023/12/29 06:30:39;;;;;;;19.90;12.20;;;;;;;17.18;33.95;100381.27;105605;1249;60462;-55
2023/12/29 06:33:07;;;;;;;18.90;10.70;;;;;;;17.17;33.92;100381.98;105518;1251;64982;-51
2023/12/29 06:35:35;;;;;;;29.40;20.50;;;;;;;17.13;33.94;100386.13;105645;1248;61344;-53
2023/12/29 06:38:03;;;;;;;12.30;6.30;;;;;;;17.11;33.97;100381.51;105547;1251;63773;-55
2023/12/29 06:40:31;;;;;;;14.60;7.30;;;;;;;17.10;33.91;100381.08;106135;1248;60646;-54
2023/12/29 06:42:58;;;;;;;13.90;6.10;;;;;;;17.06;34.00;100377.05;106136;1254;60392;-56
2023/12/29 06:45:26;;;;;;;14.00;6.70;;;;;;;17.04;34.04;100375.33;105649;1251;65039;-55
2023/12/29 06:47:54;;;;;;;12.60;5.30;;;;;;;17.02;34.07;100370.23;105728;1248;61298;-56
2023/12/29 06:50:22;;;;;;;11.10;5.50;;;;;;;17.01;34.12;100367.02;105654;1251;62428;-57
2023/12/29 06:52:49;;;;;;;14.60;7.00;;;;;;;17.00;34.14;100364.50;105588;1254;60307;-54
2023/12/29 06:55:17;;;;;;;12.00;5.90;;;;;;;17.00;34.27;100362.73;105664;1251;60698;-54
2023/12/29 06:57:44;;;;;;;19.50;13.00;;;;;;;17.04;34.20;100358.02;105582;1251;63705;-53
2023/12/29 07:00:12;;;;;;;22.10;6.80;;;;;;;17.14;34.26;100362.84;105619;1253;60462;-55
2023/12/29 07:02:40;;;;;;;34.20;16.00;;;;;;;17.24;34.19;100360.08;105728;1248;62463;-54
2023/12/29 07:05:08;;;;;;;35.90;19.50;;;;;;;17.37;34.12;100353.05;105565;1250;60514;-54
2023/12/29 07:07:37;;;;;;;34.60;26.50;;;;;;;17.47;34.03;100348.15;105688;1251;60419;-54
2023/12/29 07:10:06;;;;;;;15.80;8.70;;;;;;;17.55;33.93;100348.23;105545;1251;65379;-55
2023/12/29 07:12:34;;;;;;;18.10;9.50;;;;;;;17.60;33.84;100343.33;109530;1251;61767;-55
2023/12/29 07:15:01;;;;;;;22.50;15.40;;;;;;;17.68;33.76;100345.02;109514;1249;63735;-55
2023/12/29 07:17:29;;;;;;;12.70;5.80;;;;;;;17.69;33.61;100342.02;109420;1248;58186;-55
2023/12/29 07:19:56;;;;;;;21.70;14.20;;;;;;;17.71;33.69;100341.81;109544;1248;58261;-56
2023/12/29 07:22:24;;;;;;;13.40;6.80;;;;;;;17.74;33.69;100338.52;109646;1248;64890;-55
2023/12/29 07:24:51;;;;;;;17.80;6.60;;;;;;;17.79;33.67;100337.61;109547;1248;62018;-55
2023/12/29 07:27:19;;;;;;;27.30;16.50;;;;;;;17.82;33.63;100339.36;105788;1254;66537;-56
2023/12/29 07:29:46;;;;;;;11.60;5.60;;;;;;;17.81;33.71;100343.19;105612;1256;61162;-55
2023/12/29 07:32:14;;;;;;;26.80;15.80;;;;;;;17.84;33.71;100346.20;105802;1248;60549;-55
2023/12/29 07:34:42;;;;;;;13.40;6.00;;;;;;;17.90;33.65;100351.66;105616;1248;63636;-56
2023/12/29 07:37:10;;;;;;;20.60;15.40;;;;;;;17.94;33.61;100361.23;105878;1254;60497;-55
2023/12/29 07:39:37;;;;;;;17.80;7.60;;;;;;;17.99;33.53;100360.73;105612;1250;62483;-55
2023/12/29 07:42:05;;;;;;;18.20;13.40;;;;;;;18.02;33.56;100363.45;105622;1251;60436;-56
2023/12/29 07:44:33;;;;;;;16.90;6.90;;;;;;;18.03;33.59;100357.15;106061;1254;60676;-56
2023/12/29 07:47:01;;;;;;;22.10;15.20;;;;;;;18.05;33.62;100353.72;105658;1249;63637;-55
2023/12/29 07:49:29;;;;;;;12.80;5.20;;;;;;;18.05;33.60;100350.36;105753;1249;63028;-56
2023/12/29 07:51:59;;;;;;;14.00;6.60;;;;;;;18.08;33.65;100350.75;105680;1249;62460;-57
2023/12/29 07:54:27;;;;;;;10.80;4.80;;;;;;;18.10;33.71;100353.30;106359;1251;61305;-57
2023/12/29 07:56:54;;;;;;;18.00;11.70;;;;;;;18.13;33.67;100351.05;105655;1248;60446;-55
2023/12/29 07:59:22;;;;;;;19.20;12.60;;;;;;;18.25;33.62;100347.94;105709;1254;64943;-55
2023/12/29 08:01:49;;;;;;;9.60;4.40;;;;;;;18.40;33.53;100344.56;105656;1248;61379;-56
2023/12/29 08:04:17;;;;;;;12.70;4.90;;;;;;;18.51;33.38;100342.98;105577;1251;63892;-55
2023/12/29 08:06:45;;;;;;;14.40;11.30;;;;;;;18.56;33.31;100341.01;105701;1252;60652;-54
2023/12/29 08:09:13;;;;;;;12.60;5.30;;;;;;;18.57;33.25;100349.77;105782;1248;60612;-56
2023/12/29 08:11:42;;;;;;;17.70;12.40;;;;;;;18.59;33.27;100356.64;105662;1248;63658;-55
2023/12/29 08:14:11;;;;;;;17.40;12.20;;;;;;;18.58;33.31;100355.76;105866;1248;61396;-55
2023/12/29 08:16:40;;;;;;;12.80;5.10;;;;;;;18.57;33.35;100357.05;105763;1251;63758;-55
2023/12/29 08:19:07;;;;;;;18.30;12.00;;;;;;;18.59;33.33;100359.80;105921;1254;60491;-56
2023/12/29 08:21:36;;;;;;;10.70;4.90;;;;;;;18.61;33.38;100352.56;106055;1248;60564;-55
2023/12/29 08:24:04;;;;;;;10.70;3.90;;;;;;;18.67;33.30;100352.33;106022;1248;67954;-53
2023/12/29 08:26:31;;;;;;;18.50;11.60;;;;;;;18.80;33.21;100356.79;106172;1253;60471;-54
2023/12/29 08:28:59;;;;;;;16.30;12.30;;;;;;;18.95;33.11;100356.17;105651;1250;62506;-55
2023/12/29 08:31:28;;;;;;;9.90;5.00;;;;;;;18.99;33.06;100357.46;106126;1250;60361;-54
2023/12/29 08:33:56;;;;;;;18.50;12.80;;;;;;;19.02;33.02;100351.88;106262;1254;60280;-53
2023/12/29 08:36:24;;;;;;;25.80;16.00;;;;;;;19.02;33.05;100353.55;106285;1248;72865;-54
2023/12/29 08:38:52;;;;;;;16.00;7.60;;;;;;;19.03;33.01;100353.00;105720;1251;61286;-54
2023/12/29 08:41:20;;;;;;;24.10;16.70;;;;;;;19.05;32.97;100349.82;105710;1251;62653;-53
2023/12/29 08:43:48;;;;;;;19.40;13.90;;;;;;;19.08;33.00;100349.42;105437;1255;61353;-52
2023/12/29 08:46:15;;;;;;;17.00;6.50;;;;;;;19.11;33.09;100346.23;105492;1250;60642;-54
2023/12/29 08:48:43;;;;;;;17.90;11.80;;;;;;;19.22;32.71;100352.05;105638;1248;75788;-54
2023/12/29 08:51:10;;;;;;;11.70;5.40;;;;;;;19.31;32.69;100353.66;105574;1254;61801;-54
2023/12/29 08:53:38;;;;;;;16.60;11.60;;;;;;;19.36;32.67;100354.17;105502;1255;63656;-55
2023/12/29 08:56:06;;;;;;;11.10;5.00;;;;;;;19.38;32.63;100349.53;106637;1248;60413;-55
2023/12/29 08:58:34;;;;;;;15.80;11.30;;;;;;;19.42;32.63;100348.52;105936;1254;60377;-54
2023/12/29 09:01:02;;;;;;;14.60;10.70;;;;;;;19.44;32.70;100344.30;106138;1248;65143;-53
2023/12/29 09:03:29;;;;;;;11.60;4.00;;;;;;;19.45;32.68;100340.33;106065;1248;61339;-49
2023/12/29 09:05:58;;;;;;;14.70;11.30;;;;;;;19.52;32.64;100337.07;105661;1251;72616;-54
2023/12/29 09:08:27;;;;;;;15.50;4.60;;;;;;;19.55;32.60;100334.83;106229;1251;60431;-54
2023/12/29 09:10:55;;;;;;;15.60;10.70;;;;;;;19.64;32.46;100333.46;106227;1254;60370;-53
2023/12/29 09:13:25;;;;;;;17.50;11.20;;;;;;;19.71;32.36;100336.32;106331;1253;65020;-53
2023/12/29 09:15:56;;;;;;;14.70;11.20;;;;;;;19.75;32.29;100333.43;105687;1254;60564;-52
2023/12/29 09:18:23;;;;;;;18.40;11.90;;;;;;;19.76;32.28;100330.24;105630;1254;64231;-54
2023/12/29 09:20:51;;;;;;;15.40;11.10;;;;;;;19.78;32.29;100325.56;105615;1251;60502;-53
2023/12/29 09:23:20;;;;;;;10.40;4.30;;;;;;;19.78;32.29;100321.13;105702;1253;60301;-53
2023/12/29 09:25:47;;;;;;;15.80;11.30;;;;;;;19.80;32.32;100324.23;105733;1254;64879;-55
2023/12/29 09:28:15;;;;;;;17.40;11.40;;;;;;;19.83;32.48;100320.99;105613;1251;61364;-51
2023/12/29 09:30:43;;;;;;;17.30;11.70;;;;;;;19.88;32.30;100320.60;105729;1254;62515;-54
2023/12/29 09:33:12;;;;;;;15.40;10.70;;;;;;;19.92;32.26;100321.43;105641;1254;60498;-51
2023/12/29 09:35:40;;;;;;;7.30;3.30;;;;;;;20.03;32.22;100322.40;105920;1251;60486;-63
2023/12/29 09:38:09;;;;;;;14.00;9.00;;;;;;;20.15;31.97;100323.64;105607;1253;64943;-57
2023/12/29 09:40:37;;;;;;;17.20;10.60;;;;;;;20.26;31.91;100322.59;105957;1251;69084;-53
2023/12/29 09:43:04;;;;;;;13.80;8.80;;;;;;;20.34;31.75;100316.80;105561;1251;63666;-53
2023/12/29 09:45:33;;;;;;;13.00;9.40;;;;;;;20.42;31.54;100319.08;106060;1251;60519;-53
2023/12/29 09:48:02;;;;;;;14.60;9.80;;;;;;;20.49;31.59;100317.09;105963;1251;60583;-54
2023/12/29 09:50:31;;;;;;;7.30;3.20;;;;;;;20.58;31.42;100316.48;106048;1250;74069;-53
2023/12/29 09:52:59;;;;;;;15.70;9.40;;;;;;;20.65;31.43;100317.85;105654;1250;62101;-53
2023/12/29 09:55:26;;;;;;;14.20;9.40;;;;;;;20.70;31.25;100317.58;106078;1248;63868;-53
2023/12/29 09:57:54;;;;;;;14.60;10.10;;;;;;;20.65;31.13;100322.10;105675;1251;60491;-53
2023/12/29 10:00:22;;;;;;;15.10;9.00;;;;;;;20.61;31.13;100311.34;106309;1251;60393;-54
2023/12/29 10:02:51;;;;;;;17.90;9.30;;;;;;;20.56;31.23;100311.73;105683;1252;64861;-54
2023/12/29 10:05:18;;;;;;;12.10;8.40;;;;;;;20.51;31.09;100313.13;105826;1248;61358;-53
2023/12/29 10:07:46;;;;;;;13.00;8.00;;;;;;;20.56;31.10;100318.80;105646;1254;62681;-53
2023/12/29 10:10:15;;;;;;;14.30;8.80;;;;;;;20.60;31.06;100319.35;105652;1254;61211;-52
2023/12/29 10:12:43;;;;;;;14.50;9.10;;;;;;;20.64;30.97;100318.91;105691;1249;60532;-55
2023/12/29 10:15:18;;;;;;;13.40;8.50;;;;;;;20.68;30.91;100312.50;106720;1248;63605;-53
2023/12/29 10:17:46;;;;;;;10.30;5.10;;;;;;;20.66;30.94;100306.31;105615;1256;60476;-52
2023/12/29 10:20:43;;;;;;;16.40;9.80;;;;;;;20.68;31.04;100291.85;105444;1249;63660;-53
2023/12/29 10:23:16;;;;;;;;;;;;;;;20.72;31.06;100292.71;105746;1251;60466;-54
2023/12/29 10:25:44;;;;;;;7.70;3.30;;;;;;;20.74;30.97;100294.66;105583;1254;60496;-56
2023/12/29 10:28:11;;;;;;;13.10;9.10;;;;;;;20.74;30.91;100292.29;105526;1249;65309;-53
2023/12/29 10:30:40;;;;;;;12.00;8.00;;;;;;;20.71;31.07;100294.08;105289;1251;61803;-54
2023/12/29 10:33:08;;;;;;;15.10;9.30;;;;;;;20.68;31.08;100292.38;105729;1251;63784;-55
2023/12/29 10:35:38;;;;;;;7.30;3.90;;;;;;;20.71;31.07;100295.26;105676;1254;60984;-54
2023/12/29 10:38:10;;;;;;;13.90;8.90;;;;;;;20.77;31.06;100292.35;105624;1252;60679;-54
2023/12/29 10:40:39;;;;;;;14.00;8.80;;;;;;;20.86;30.88;100291.34;105869;1248;63638;-53
2023/12/29 10:43:07;;;;;;;13.20;8.70;;;;;;;20.88;30.64;100285.64;105935;1254;60501;-54
2023/12/29 10:45:37;;;;;;;12.80;8.30;;;;;;;20.85;30.70;100283.61;106024;1254;62485;-52
2023/12/29 10:48:05;;;;;;;12.30;8.40;;;;;;;20.85;30.82;100284.93;105970;1251;60719;-54
2023/12/29 10:50:44;;;;;;;12.60;9.30;;;;;;;20.85;30.78;100282.55;106096;1250;60469;-55
2023/12/29 10:53:14;;;;;;;13.20;8.40;;;;;;;20.94;30.71;100278.63;105828;1249;63649;-52
2023/12/29 10:55:41;;;;;;;12.70;8.50;;;;;;;21.06;30.71;100275.38;105816;1251;61512;-53
2023/12/29 10:58:09;;;;;;;13.30;8.20;;;;;;;21.14;30.54;100276.39;105900;1253;63703;-53
2023/12/29 11:00:36;;;;;;;14.50;8.90;;;;;;;21.16;30.38;100274.10;105914;1251;60535;-53
2023/12/29 11:03:04;;;;;;;13.70;9.50;;;;;;;21.14;30.31;100277.87;105992;1254;60418;-54
2023/12/29 11:05:33;;;;;;;11.80;8.20;;;;;;;21.15;30.42;100270.97;105641;1256;63878;-53
2023/12/29 11:08:01;;;;;;;13.00;8.80;;;;;;;21.17;30.40;100268.19;106101;1251;60584;-53
2023/12/29 11:10:28;;;;;;;15.30;8.70;;;;;;;21.25;30.43;100263.42;105552;1256;62483;-55
2023/12/29 11:12:56;;;;;;;12.90;8.60;;;;;;;21.34;30.27;100266.11;106144;1251;60497;-53